Darlington, Wisconsin
Current Conditions -  °F | °C
As of 8:35 PM on Thursday 20 Nov 2014 (Local Time) from KMRJ Reporting Station
Clear Clear  
Wind Chill:   Ceiling: Unl
Heat Index: 12°   Visibility: 10mi
Dew Point:   Wind: 5mph
Humidity: 67%   Direction: 280°W
Pressure: 30.21"   Gusts: NA
Location:  42.68°N, 90.12°W
Report Text: KMRJ 210235Z AUTO 28004KT 10SM CLR M11/M16 A3021 RMK AO2
Loading
Personal Weather Stations






























Interactive Weather Map New forecast layout! Learn more

10-Day Weather Forecast

Advertisements
Track Severe Weather on mobile